Date,TemperatureHighF,TemperatureAvgF,TemperatureLowF,DewpointHighF,DewpointAvgF,DewpointLowF,HumidityHigh,HumidityAvg,HumidityLow,PressureMaxIn,PressureMinIn,WindSpeedMaxMPH,WindSpeedAvgMPH,GustSpeedMaxMPH,PrecipitationSumIn
2013-4-1,76,64,54,60,45,32,99,58,26,0.00,40.00,17,4,30,0.00
2013-4-2,72,60,46,35,31,25,53,35,25,0.00,40.00,11,4,21,0.00
2013-4-3,62,55,49,28,25,21,35,31,28,0.00,40.00,10,4,21,0.00
2013-4-4,55,44,31,40,32,-100,99,70,35,0.00,40.00,11,5,22,0.00
2013-4-5,68,52,37,45,37,28,99,66,23,0.00,40.00,8,2,16,0.00
2013-4-6,72,58,41,44,37,31,95,49,27,0.00,40.00,7,2,14,0.00
2013-4-7,74,61,45,50,44,32,91,56,37,0.00,40.00,10,3,18,0.00
2013-4-8,78,66,54,58,54,50,98,69,43,0.00,40.00,12,3,24,0.00
2013-4-9,84,70,55,60,57,54,99,66,42,0.00,40.00,11,3,19,0.00
2013-4-10,87,74,61,64,60,57,99,66,43,0.00,40.00,10,4,19,0.00
2013-4-11,82,70,62,71,64,58,99,82,54,0.00,40.00,11,4,20,0.00
2013-4-12,79,70,62,68,54,35,99,65,28,0.00,40.00,16,7,35,0.00
2013-4-13,80,64,47,49,41,34,99,49,26,0.00,40.00,7,2,15,0.00
2013-4-14,71,63,54,57,44,35,95,52,37,0.00,40.00,9,3,14,0.00
2013-4-15,72,62,56,61,57,55,99,86,57,0.00,40.00,6,3,13,0.00
2013-4-16,82,70,61,64,59,57,96,73,44,0.00,40.00,6,2,11,0.00
2013-4-17,86,69,63,67,64,61,99,84,48,0.00,40.00,8,2,17,0.00
2013-4-18,80,70,61,67,61,56,99,79,45,0.00,40.00,8,2,16,0.00
2013-4-19,72,64,51,70,63,51,99,97,86,0.00,40.00,13,6,26,0.00
2013-4-20,68,55,41,51,33,27,99,49,27,0.00,40.00,7,2,14,0.00
2013-4-21,68,56,45,39,35,28,63,45,32,0.00,40.00,11,3,20,0.00
2013-4-22,66,56,46,42,39,34,80,56,37,0.00,40.00,10,4,20,0.00
2013-4-23,74,60,45,49,42,33,65,52,39,0.00,40.00,8,3,16,0.00
2013-4-24,75,63,53,63,56,50,99,79,51,0.00,40.00,13,5,26,0.00
2013-4-25,78,64,52,62,44,27,99,53,25,0.00,40.00,8,3,15,0.00
2013-4-26,75,62,49,43,35,27,49,37,29,0.00,40.00,8,3,17,0.00
2013-4-27,63,58,54,59,53,40,99,85,45,0.00,40.00,6,2,11,0.00
2013-4-28,55,54,52,54,52,-100,99,99,99,0.00,40.00,8,2,14,0.00
2013-4-29,76,62,54,62,57,54,99,85,52,0.00,40.00,9,2,16,0.00
2013-4-30,77,66,54,64,58,54,99,80,50,0.00,40.00,8,3,16,0.00